OS65 weather

Shayrat Air Base
Shayrat, Homs Governorate, Syria

Public forecast

Using degrees Celsius for public forecast. Weather courtesy of forecast.io.

METAR (pilot weather report)

Closest report is Damascus International Airport, 67.7 nm (125.3 km) SSW. Retrieved 2019/06/15 22:00 UTC (2 hours ago):

OSDI 152200Z 22010KT CAVOK 21/14 Q1009

TAF (pilot weather forecast)

Closest forecast is Damascus International Airport, 67.7 nm (125.3 km) SSW. Retrieved 2019/06/15 18:09 UTC (6 hours ago):

TAF TAF OSDI 151600Z 1518/1624 22010KT 9999 FEW030 TEMPO 1612/1618 25015G25KT